Bowesville, Ontario

10:10 PM EDT on April 27, 2017 (GMT -0400)
Sinclair Weather - CFB Uplands | | Change Station

Elev 341 ft 45.34 °N, 75.67 °W | Updated 1 minute ago

Overcast
Overcast
70.3 °F
Feels Like 74 °F
N
2.0
Wind Variable Wind from ENE
Gusts 6.0 mph

Today
High -- | Low -- °F
--% Chance of Precip.
Yesterday
High -- | Low -- °F
Precip. -- in
Pressure 29.60 in
Visibility 15.0 miles
Clouds Mostly Cloudy 23000 ft
Heat Index 74 °F
Dew Point 60 °F
Humidity 69%
Rainfall 0.00 in
Snow Depth Not available.
5:57 AM 8:04 PM
Waxing Crescent, 4% visible
METAR CYND 280100Z 08013G20KT 15SM BKN230 21/15 A2960 RMK CI6 LAST STFD OBS/NEXT 281100 UTC SLP024 DENSITY ALT 1300FT
Pressure 29.60 in
Visibility 15.0 miles
Clouds Mostly Cloudy 23000 ft
Heat Index 74 °F
Dew Point 60 °F
Humidity 69%
Rainfall 0.00 in
Snow Depth Not available.
5:57 AM 8:04 PM
Waxing Crescent, 4% visible
METAR CYND 280100Z 08013G20KT 15SM BKN230 21/15 A2960 RMK CI6 LAST STFD OBS/NEXT 281100 UTC SLP024 DENSITY ALT 1300FT

Get Severe Weather Alerts

Thanks for signing up!

Be on the lookout for a verification email in your inbox.

You'll start receiving the daily forecast at 8 AM.

×

10-Day Weather Forecast

Almanac

Astronomy

Apr. 27, 2017 Rise Set
Actual Time
Civil Twilight
Nautical Twilight
Astronomical Twilight
Moon
Length of Visible Light
Length of Day
Tomorrow will be .
, % of the Moon is Illuminated

Today's Extremes

Country Highs Country Lows

Community

WunderPhotos

WunderBlog® & News

Nearby

Air Quality

  Air Quality AQ Index Pollutant
Not available.

Snow Depth

Station Depth Elevation

Earthquake Activity

City Distance Mag. Time & Date
Minimum magnitude displayed is 2.5.

Coastal Water Temperatures

Place Temperature

Stations

Nearby Weather Stations

Station Location Temp. Windchill Dew Point Humidity Wind Precip. Elev Updated Type
                   

Watches & Warnings

There are currently no watches in effect.